Philip S. W. Goldson International Airport
MZBZ : rendu visible

Aérodrome :











RETROUVEZ-NOUS SUR...

 
LOGIN :

S'inscrire | Disclaimer

   EN    FR    IT 

 









Légende :    VFR   VFR Marginal   IFR   IFR Intensif   IFR Très Intensif
Visi : 
Plafond : 
>= 8 km
>= 3000ft
5 à 8 km
1000 à 3000 ft
1500m à 5 km
500 à 1000 ft
800 à 1500m
200 à 500 ft
< 800m
< 200 ft
Symboles :   Orages  Brouillard  Fortes neiges  Fortes précipitations  Vent > 20 kt






- Altitude de l'aérodrome : 15 ft
- Code IATA : BZE


MZBZ - Philip S. W. Goldson International

DERNIER METAR :
  • 271300Z 10008KT 9999 BKN017 30/27 A2987 Q1011 NOSIG

METARs EXPIRÉS :
  • 271200Z 10005KT 9999 BKN016 29/27 A2986 Q1011 NOSIG
  • 271100Z 11005KT 9999 BKN016 29/27 A2981 Q1009 NOSIG

TAF TAF MZBZ
Valide du 27 à 12h jusqu'au 28 à 12h UTC


271100Z 2712/2812 13008KT 9999 SCT020 SCT045
PROB30
TEMPO 2714/2720 5000 SHRA BKN015 BKN035
BECMG 2716/2718 07010KT
PROB30
TEMPO 2803/2810 3000 TSRA FEW010CB BKN035
FIR MHTG / Amérique du Nord



MET'MAP, la Météo Aéronautique d'un coup d'oeil ! - Copyright ORBIFLY Décembre 2007 - Disclaimer

ORBIFLY MET'MAP TEAM :

Programmation & Développement : Alexandra Zaïnal
Sur une idée originale de : Baudouin d'Aumeries
Assistance à la programmation : Marc-Olivier Méhu
Soutien technique & logistique : Manuel Goepfert

Contact : metmap@orbifly.com




SOURCES & CREDITS :

   NOAA       Earth
Advisory